Apalachin, New York
Current Conditions -  °F | °C
As of 2:53 AM on Monday 22 Dec 2014 (Local Time) from KBGM Reporting Station
Overcast Overcast  
Wind Chill: 26°   Ceiling: 1300
Heat Index: 26°   Visibility: 10mi
Dew Point: 22°   Wind: 3mph
Humidity: 84%   Direction: 190°S
Pressure: 30.25"   Gusts: NA
Location:  42.07°N, 76.15°W
Report Text: KBGM 220753Z AUTO 19003KT 10SM OVC013 M03/M06 A3025 RMK AO2 SLP265 T10331056
Loading
Personal Weather Stations






























Interactive Weather Map New forecast layout! Learn more

10-Day Weather Forecast

Advertisements
Track Severe Weather on mobile